createdAt,value
2022-10-22T00:00:43.591Z,93.99
2022-10-22T00:01:44.481Z,93.89
2022-10-22T00:02:45.487Z,93.69
2022-10-22T00:03:46.340Z,93.79
2022-10-22T00:04:47.237Z,93.84
2022-10-22T00:05:48.165Z,93.52
2022-10-22T00:06:49.039Z,93.84
2022-10-22T00:07:49.920Z,93.93
2022-10-22T00:08:50.918Z,94.14
2022-10-22T00:09:51.785Z,94.34
2022-10-22T00:10:52.693Z,94.34
2022-10-22T00:11:53.569Z,94.55
2022-10-22T00:12:54.443Z,94.55
2022-10-22T00:13:54.936Z,94.65
2022-10-22T00:14:55.811Z,94.45
2022-10-22T00:15:56.704Z,94.45
2022-10-22T00:16:57.594Z,94.65
2022-10-22T00:17:58.491Z,94.65
2022-10-22T00:18:59.356Z,94.75
2022-10-22T00:20:00.229Z,94.65
2022-10-22T00:21:01.120Z,94.85
2022-10-22T00:22:02.998Z,94.55
2022-10-22T00:23:02.836Z,94.65
2022-10-22T00:24:03.707Z,94.55
2022-10-22T00:25:04.596Z,94.55
2022-10-22T00:26:05.482Z,94.45
2022-10-22T00:27:06.372Z,94.65
2022-10-22T00:28:07.255Z,94.45
2022-10-22T00:29:08.132Z,94.24
2022-10-22T00:30:08.868Z,94.24
2022-10-22T00:31:09.759Z,94.14
2022-10-22T00:32:10.637Z,94.45
2022-10-22T00:33:11.538Z,94.34
2022-10-22T00:34:12.398Z,94.45
2022-10-22T00:35:13.281Z,94.24
2022-10-22T00:36:14.167Z,94.34
2022-10-22T00:37:15.047Z,94.34
2022-10-22T00:38:15.921Z,94.34
2022-10-22T00:39:16.812Z,94.14
2022-10-22T00:40:17.689Z,94.14
2022-10-22T00:41:18.580Z,94.14
2022-10-22T00:42:19.453Z,93.93
2022-10-22T00:43:20.335Z,94.14
2022-10-22T00:44:21.218Z,94.24
2022-10-22T00:45:22.105Z,94.14
2022-10-22T00:46:22.993Z,94.24
2022-10-22T00:47:23.875Z,94.45
2022-10-22T00:48:24.769Z,94.34
2022-10-22T00:49:25.631Z,94.04
2022-10-22T00:50:26.514Z,94.14
2022-10-22T00:51:27.406Z,94.04
2022-10-22T00:52:28.282Z,94.04
2022-10-22T00:53:29.164Z,94.04
2022-10-22T00:54:30.046Z,94.14
2022-10-22T00:55:30.954Z,94.45
2022-10-22T00:56:31.828Z,94.14
2022-10-22T00:57:32.717Z,94.34
2022-10-22T00:58:33.595Z,94.14
2022-10-22T00:59:34.477Z,94.45
2022-10-22T01:00:35.402Z,94.34
2022-10-22T01:01:36.252Z,94.34
2022-10-22T01:02:37.153Z,94.14
2022-10-22T01:03:37.739Z,94.34
2022-10-22T01:04:38.601Z,94.55
2022-10-22T01:05:39.492Z,94.65
2022-10-22T01:06:40.378Z,94.65
2022-10-22T01:07:41.248Z,94.75
2022-10-22T01:08:42.170Z,95.06
2022-10-22T01:09:43.027Z,95.26
2022-10-22T01:10:43.914Z,95.06
2022-10-22T01:11:44.795Z,94.95
2022-10-22T01:12:45.679Z,95.06
2022-10-22T01:13:46.560Z,94.95
2022-10-22T01:14:47.433Z,94.85
2022-10-22T01:15:48.338Z,94.95
2022-10-22T01:16:49.209Z,94.75
2022-10-22T01:17:50.091Z,94.85
2022-10-22T01:18:50.986Z,94.75
2022-10-22T01:19:51.848Z,94.95
2022-10-22T01:20:52.741Z,95.16
2022-10-22T01:21:53.633Z,95.26
2022-10-22T01:22:54.509Z,94.95
2022-10-22T01:23:55.461Z,95.26
2022-10-22T01:24:56.335Z,95.47
2022-10-22T01:25:57.226Z,95.67
2022-10-22T01:26:58.110Z,95.47
2022-10-22T01:27:59.002Z,95.77
2022-10-22T01:28:59.876Z,95.77
2022-10-22T01:30:00.759Z,95.47
2022-10-22T01:31:01.652Z,95.57
2022-10-22T01:32:02.536Z,95.16
2022-10-22T01:33:03.419Z,94.95
2022-10-22T01:34:04.326Z,95.16
2022-10-22T01:35:05.186Z,95.36
2022-10-22T01:36:06.079Z,95.57
2022-10-22T01:37:06.962Z,95.77
2022-10-22T01:38:07.844Z,95.47
2022-10-22T01:39:08.717Z,95.26
2022-10-22T01:40:09.608Z,95.16
2022-10-22T01:41:10.492Z,95.36
2022-10-22T01:42:11.375Z,95.47
2022-10-22T01:43:12.249Z,95.67
2022-10-22T01:44:13.131Z,95.77
2022-10-22T01:45:14.007Z,95.47
2022-10-22T01:46:14.906Z,95.57
2022-10-22T01:47:15.781Z,95.57
2022-10-22T01:48:16.662Z,95.67
2022-10-22T01:49:17.573Z,95.67
2022-10-22T01:50:18.427Z,95.67
2022-10-22T01:51:19.319Z,95.57
2022-10-22T01:52:20.214Z,95.36
2022-10-22T01:53:21.085Z,95.36
2022-10-22T01:54:21.968Z,95.47
2022-10-22T01:55:22.839Z,95.26
2022-10-22T01:56:23.732Z,95.16
2022-10-22T01:57:24.607Z,95.36
2022-10-22T01:58:25.493Z,95.26
2022-10-22T01:59:26.372Z,95.20
2022-10-22T02:00:27.307Z,95.41
2022-10-22T02:01:28.176Z,95.61
2022-10-22T02:02:29.058Z,95.51
2022-10-22T02:03:29.933Z,95.61
2022-10-22T02:04:30.840Z,95.92
2022-10-22T02:05:31.699Z,95.81
2022-10-22T02:06:32.591Z,95.81
2022-10-22T02:07:33.474Z,95.81
2022-10-22T02:08:34.390Z,96.22
2022-10-22T02:09:35.239Z,96.33
2022-10-22T02:10:36.132Z,96.12
2022-10-22T02:11:37.017Z,96.22
2022-10-22T02:12:38.020Z,95.97
2022-10-22T02:13:38.513Z,95.97
2022-10-22T02:14:39.396Z,96.28
2022-10-22T02:15:40.279Z,96.63
2022-10-22T02:16:41.193Z,96.48
2022-10-22T02:17:42.064Z,96.28
2022-10-22T02:18:42.939Z,96.33
2022-10-22T02:19:43.833Z,96.28
2022-10-22T02:20:44.697Z,96.18
2022-10-22T02:21:45.588Z,96.18
2022-10-22T02:22:46.481Z,96.18
2022-10-22T02:23:47.358Z,96.28
2022-10-22T02:24:48.238Z,96.59
2022-10-22T02:25:49.122Z,96.48
2022-10-22T02:26:50.015Z,96.38
2022-10-22T02:27:50.913Z,96.59
2022-10-22T02:28:51.790Z,96.69
2022-10-22T02:29:52.703Z,96.59
2022-10-22T02:30:53.581Z,96.79
2022-10-22T02:31:54.510Z,96.79
2022-10-22T02:32:55.389Z,96.59
2022-10-22T02:33:56.252Z,96.69
2022-10-22T02:34:57.158Z,96.69
2022-10-22T02:35:58.027Z,96.53
2022-10-22T02:36:58.901Z,96.79
2022-10-22T02:37:59.829Z,96.69
2022-10-22T02:39:00.668Z,96.38
2022-10-22T02:40:01.551Z,96.73
2022-10-22T02:41:02.447Z,96.69
2022-10-22T02:42:03.326Z,96.48
2022-10-22T02:43:04.207Z,96.38
2022-10-22T02:44:05.099Z,96.48
2022-10-22T02:45:05.970Z,96.79
2022-10-22T02:46:06.838Z,96.79
2022-10-22T02:47:07.723Z,96.69
2022-10-22T02:48:08.702Z,96.69
2022-10-22T02:49:09.504Z,96.79
2022-10-22T02:50:10.600Z,96.89
2022-10-22T02:51:11.014Z,96.79
2022-10-22T02:52:11.902Z,96.89
2022-10-22T02:53:12.781Z,96.89
2022-10-22T02:54:13.664Z,97.20
2022-10-22T02:55:14.548Z,97.09
2022-10-22T02:56:15.439Z,97.34
2022-10-22T02:57:16.421Z,97.45
2022-10-22T02:58:17.298Z,97.65
2022-10-22T02:59:18.173Z,97.24
2022-10-22T03:00:19.070Z,97.45
2022-10-22T03:01:20.017Z,97.55
2022-10-22T03:02:20.894Z,97.45
2022-10-22T03:03:21.812Z,97.34
2022-10-22T03:04:22.673Z,97.55
2022-10-22T03:05:23.589Z,97.65
2022-10-22T03:07:25.302Z,97.45
2022-10-22T03:08:26.176Z,97.45
2022-10-22T03:09:27.064Z,97.65
2022-10-22T03:10:27.952Z,97.45
2022-10-22T03:11:28.833Z,97.14
2022-10-22T03:12:29.707Z,97.34
2022-10-22T03:13:30.589Z,97.34
2022-10-22T03:14:31.476Z,97.24
2022-10-22T03:15:32.377Z,97.24
2022-10-22T03:16:33.254Z,97.20
2022-10-22T03:17:34.134Z,97.55
2022-10-22T03:18:35.011Z,97.34
2022-10-22T03:19:35.890Z,97.55
2022-10-22T03:20:36.802Z,97.34
2022-10-22T03:21:37.677Z,97.45
2022-10-22T03:22:38.548Z,97.34
2022-10-22T03:23:39.430Z,97.24
2022-10-22T03:24:40.304Z,97.34
2022-10-22T03:25:41.196Z,97.34
2022-10-22T03:26:42.070Z,97.45
2022-10-22T03:27:43.289Z,97.14
2022-10-22T03:28:43.758Z,97.34
2022-10-22T03:29:44.639Z,97.24
2022-10-22T03:30:45.530Z,97.34
2022-10-22T03:31:46.414Z,97.55
2022-10-22T03:32:47.288Z,97.55
2022-10-22T03:33:48.178Z,97.24
2022-10-22T03:34:49.082Z,97.45
2022-10-22T03:35:49.965Z,97.45
2022-10-22T03:36:50.828Z,97.34
2022-10-22T03:37:51.709Z,97.45
2022-10-22T03:38:52.596Z,97.14
2022-10-22T03:39:53.485Z,97.24
2022-10-22T03:40:54.370Z,97.45
2022-10-22T03:41:55.254Z,97.14
2022-10-22T03:42:56.135Z,97.24
2022-10-22T03:43:57.017Z,97.45
2022-10-22T03:44:57.891Z,97.14
2022-10-22T03:45:58.808Z,97.45
2022-10-22T03:47:02.478Z,97.45
2022-10-22T03:48:00.237Z,97.45
2022-10-22T03:49:01.119Z,97.34
2022-10-22T03:50:02.031Z,97.34
2022-10-22T03:51:02.922Z,97.24
2022-10-22T03:52:03.787Z,97.24
2022-10-22T03:53:04.663Z,97.14
2022-10-22T03:54:05.547Z,97.34
2022-10-22T03:55:06.453Z,97.24
2022-10-22T03:56:07.334Z,97.45
2022-10-22T03:57:08.221Z,97.24
2022-10-22T03:58:09.111Z,97.04
2022-10-22T03:59:09.984Z,96.94
2022-10-22T04:00:10.877Z,96.84
2022-10-22T04:01:11.848Z,97.14
2022-10-22T04:02:12.695Z,96.84
2022-10-22T04:03:13.568Z,96.84
2022-10-22T04:04:14.461Z,96.84
2022-10-22T04:05:15.347Z,96.73
2022-10-22T04:06:16.247Z,96.73
2022-10-22T04:07:17.111Z,96.84
2022-10-22T04:08:17.993Z,96.69
2022-10-22T04:09:18.906Z,96.73
2022-10-22T04:10:19.771Z,96.59
2022-10-22T04:11:20.649Z,96.69
2022-10-22T04:12:21.527Z,96.59
2022-10-22T04:13:22.405Z,96.69
2022-10-22T04:14:23.281Z,96.59
2022-10-22T04:15:24.164Z,96.48
2022-10-22T04:16:27.476Z,96.48
2022-10-22T04:17:25.776Z,96.48
2022-10-22T04:18:26.654Z,96.28
2022-10-22T04:19:27.624Z,96.28
2022-10-22T04:20:28.455Z,96.18
2022-10-22T04:21:29.358Z,96.08
2022-10-22T04:22:30.223Z,95.97
2022-10-22T04:23:31.101Z,95.97
2022-10-22T04:24:31.985Z,95.87
2022-10-22T04:25:32.880Z,95.92
2022-10-22T04:26:33.757Z,96.12
2022-10-22T04:27:34.651Z,96.08
2022-10-22T04:28:35.537Z,96.12
2022-10-22T04:29:36.406Z,96.28
2022-10-22T04:30:37.298Z,96.22
2022-10-22T04:31:38.183Z,96.12
2022-10-22T04:32:39.064Z,96.02
2022-10-22T04:33:39.950Z,96.12
2022-10-22T04:34:40.845Z,96.12
2022-10-22T04:35:41.722Z,96.22
2022-10-22T04:36:42.615Z,96.02
2022-10-22T04:37:43.532Z,96.22
2022-10-22T04:38:44.362Z,95.92
2022-10-22T04:39:45.275Z,95.72
2022-10-22T04:40:46.128Z,95.61
2022-10-22T04:41:47.009Z,95.41
2022-10-22T04:42:47.912Z,95.20
2022-10-22T04:43:48.778Z,95.10
2022-10-22T04:44:49.744Z,95.10
2022-10-22T04:45:51.151Z,95.10
2022-10-22T04:46:51.511Z,94.79
2022-10-22T04:47:52.397Z,94.49
2022-10-22T04:48:53.281Z,94.08
2022-10-22T04:49:54.192Z,93.77
2022-10-22T04:50:55.069Z,93.77
2022-10-22T04:51:55.970Z,93.67
2022-10-22T04:52:56.823Z,93.77
2022-10-22T04:53:57.716Z,93.62
2022-10-22T04:54:58.593Z,93.57
2022-10-22T04:55:59.484Z,93.57
2022-10-22T04:57:00.368Z,93.51
2022-10-22T04:58:01.247Z,93.51
2022-10-22T04:59:02.121Z,93.31
2022-10-22T05:00:03.035Z,93.00
2022-10-22T05:01:03.923Z,92.59
2022-10-22T05:02:04.787Z,92.80
2022-10-22T05:03:05.671Z,92.90
2022-10-22T05:04:06.555Z,92.49
2022-10-22T05:05:07.451Z,92.19
2022-10-22T05:06:08.385Z,92.08
2022-10-22T05:07:09.264Z,92.19
2022-10-22T05:08:10.123Z,92.39
2022-10-22T05:09:11.091Z,92.39
2022-10-22T05:10:11.938Z,92.69
2022-10-22T05:11:12.810Z,92.90
2022-10-22T05:12:13.693Z,93.10
2022-10-22T05:13:14.577Z,92.90
2022-10-22T05:14:15.459Z,93.00
2022-10-22T05:15:16.368Z,92.80
2022-10-22T05:16:17.241Z,92.90
2022-10-22T05:17:18.124Z,92.90
2022-10-22T05:18:21.828Z,92.59
2022-10-22T05:19:19.992Z,92.49
2022-10-22T05:20:20.883Z,92.59
2022-10-22T05:21:21.780Z,92.39
2022-10-22T05:22:22.671Z,92.39
2022-10-22T05:23:23.533Z,92.49
2022-10-22T05:24:24.415Z,92.39
2022-10-22T05:25:25.298Z,92.39
2022-10-22T05:26:26.182Z,92.29
2022-10-22T05:27:27.076Z,92.39
2022-10-22T05:28:27.945Z,92.39
2022-10-22T05:29:28.821Z,92.49
2022-10-22T05:30:29.710Z,92.59
2022-10-22T05:31:30.593Z,92.49
2022-10-22T05:32:31.477Z,92.39
2022-10-22T05:33:32.316Z,92.49
2022-10-22T05:34:33.197Z,92.49
2022-10-22T05:35:34.071Z,92.49
2022-10-22T05:36:34.955Z,92.69
2022-10-22T05:37:35.847Z,92.80
2022-10-22T05:38:36.663Z,93.00
2022-10-22T05:39:37.494Z,93.00
2022-10-22T05:40:38.323Z,93.10
2022-10-22T05:41:39.143Z,93.21
2022-10-22T05:42:40.306Z,93.21
2022-10-22T05:43:40.738Z,93.31
2022-10-22T05:44:41.569Z,93.00
2022-10-22T05:45:42.403Z,92.80
2022-10-22T05:46:43.322Z,92.59
2022-10-22T05:47:44.244Z,92.49
2022-10-22T05:48:45.084Z,92.59
2022-10-22T05:49:45.905Z,92.90
2022-10-22T05:50:46.737Z,93.10
2022-10-22T05:51:47.566Z,93.41
2022-10-22T05:52:48.410Z,93.62
2022-10-22T05:53:49.209Z,93.71
2022-10-22T05:54:50.038Z,93.51
2022-10-22T05:55:50.868Z,93.51
2022-10-22T05:56:51.697Z,93.51
2022-10-22T05:57:52.541Z,93.62
2022-10-22T05:58:53.404Z,93.71
2022-10-22T05:59:54.186Z,93.71
2022-10-22T06:00:55.037Z,93.82
2022-10-22T06:01:55.904Z,94.12
2022-10-22T06:02:56.683Z,94.23
2022-10-22T06:03:57.522Z,94.33
2022-10-22T06:04:58.344Z,94.33
2022-10-22T06:05:59.175Z,94.33
2022-10-22T06:07:00.001Z,94.53
2022-10-22T06:08:00.839Z,94.27
2022-10-22T06:09:01.725Z,94.58
2022-10-22T06:10:02.521Z,94.68
2022-10-22T06:11:03.350Z,94.58
2022-10-22T06:12:04.173Z,94.89
2022-10-22T06:13:05.126Z,94.98
2022-10-22T06:14:05.880Z,94.98
2022-10-22T06:15:06.708Z,95.19
2022-10-22T06:16:07.553Z,95.29
2022-10-22T06:17:08.372Z,95.39
2022-10-22T06:18:09.192Z,95.50
2022-10-22T06:19:10.020Z,95.19
2022-10-22T06:20:10.850Z,95.09
2022-10-22T06:21:11.678Z,95.09
2022-10-22T06:22:12.513Z,95.09
2022-10-22T06:23:13.348Z,95.09
2022-10-22T06:24:14.157Z,95.19
2022-10-22T06:25:14.990Z,95.09
2022-10-22T06:26:15.825Z,95.09
2022-10-22T06:27:16.655Z,94.98
2022-10-22T06:28:17.520Z,94.78
2022-10-22T06:29:18.303Z,94.68
2022-10-22T06:30:19.144Z,94.89
2022-10-22T06:31:19.972Z,94.89
2022-10-22T06:32:20.792Z,94.89
2022-10-22T06:33:21.622Z,94.68
2022-10-22T06:34:22.478Z,94.89
2022-10-22T06:35:23.293Z,94.68
2022-10-22T06:36:24.120Z,94.89
2022-10-22T06:37:24.949Z,94.78
2022-10-22T06:38:25.787Z,94.37
2022-10-22T06:39:26.595Z,93.86
2022-10-22T06:40:27.451Z,93.96
2022-10-22T06:41:28.967Z,94.07
2022-10-22T06:42:28.988Z,94.07
2022-10-22T06:43:29.816Z,93.96
2022-10-22T06:44:30.636Z,93.86
2022-10-22T06:45:31.475Z,93.96
2022-10-22T06:46:32.306Z,93.96
2022-10-22T06:47:33.128Z,94.07
2022-10-22T06:48:33.954Z,94.37
2022-10-22T06:49:34.782Z,94.27
2022-10-22T06:50:35.615Z,94.17
2022-10-22T06:51:36.447Z,94.17
2022-10-22T06:52:37.269Z,93.96
2022-10-22T06:53:38.112Z,93.66
2022-10-22T06:54:38.921Z,93.45
2022-10-22T06:55:39.811Z,93.35
2022-10-22T06:56:40.645Z,93.45
2022-10-22T06:57:41.828Z,93.66
2022-10-22T06:58:42.286Z,93.66
2022-10-22T06:59:43.114Z,93.66
2022-10-22T07:00:43.948Z,93.66
2022-10-22T07:01:44.865Z,93.55
2022-10-22T07:02:45.686Z,93.35
2022-10-22T07:03:46.520Z,93.25
2022-10-22T07:04:47.343Z,93.25
2022-10-22T07:05:48.190Z,93.15
2022-10-22T07:06:49.011Z,92.94
2022-10-22T07:07:49.847Z,92.94
2022-10-22T07:08:50.869Z,93.05
2022-10-22T07:09:51.537Z,93.05
2022-10-22T07:10:51.890Z,93.05
2022-10-22T07:11:52.712Z,92.74
2022-10-22T07:12:53.534Z,92.54
2022-10-22T07:13:54.364Z,92.64
2022-10-22T07:14:55.194Z,92.94
2022-10-22T07:15:56.027Z,92.84
2022-10-22T07:16:56.861Z,92.84
2022-10-22T07:17:57.701Z,92.84
2022-10-22T07:18:58.519Z,92.74
2022-10-22T07:19:59.523Z,92.64
2022-10-22T07:21:00.307Z,92.43
2022-10-22T07:22:01.119Z,92.64
2022-10-22T07:23:01.936Z,92.64
2022-10-22T07:24:02.790Z,92.84
2022-10-22T07:25:06.605Z,92.84
2022-10-22T07:26:04.189Z,93.00
2022-10-22T07:27:07.012Z,93.00
2022-10-22T07:28:05.738Z,92.90
2022-10-22T07:29:06.551Z,92.90
2022-10-22T07:30:07.384Z,92.80
2022-10-22T07:31:08.234Z,92.80
2022-10-22T07:32:09.045Z,92.80
2022-10-22T07:33:09.870Z,92.90
2022-10-22T07:34:10.734Z,92.80
2022-10-22T07:35:11.568Z,93.00
2022-10-22T07:36:12.402Z,93.00
2022-10-22T07:37:13.243Z,93.00
2022-10-22T07:38:14.071Z,93.00
2022-10-22T07:39:14.912Z,93.10
2022-10-22T07:40:15.732Z,93.10
2022-10-22T07:41:16.562Z,93.00
2022-10-22T07:42:17.435Z,93.10
2022-10-22T07:43:18.257Z,93.21
2022-10-22T07:44:19.068Z,93.71
2022-10-22T07:45:20.048Z,93.71
2022-10-22T07:46:20.830Z,93.62
2022-10-22T07:47:21.656Z,93.41
2022-10-22T07:48:22.486Z,93.62
2022-10-22T07:49:23.304Z,93.71
2022-10-22T07:50:24.155Z,93.82
2022-10-22T07:51:24.981Z,93.71
2022-10-22T07:52:25.812Z,93.71
2022-10-22T07:53:26.629Z,93.71
2022-10-22T07:54:27.480Z,93.82
2022-10-22T07:55:28.287Z,93.82
2022-10-22T07:56:29.126Z,93.82
2022-10-22T07:57:29.955Z,93.92
2022-10-22T07:58:30.786Z,93.92
2022-10-22T07:59:31.625Z,94.12
2022-10-22T08:00:32.442Z,94.02
2022-10-22T08:01:33.347Z,94.12
2022-10-22T08:02:34.141Z,94.02
2022-10-22T08:03:34.970Z,94.33
2022-10-22T08:04:35.798Z,94.53
2022-10-22T08:05:36.645Z,94.33
2022-10-22T08:06:37.464Z,94.23
2022-10-22T08:07:38.291Z,94.43
2022-10-22T08:08:39.223Z,94.74
2022-10-22T08:09:40.040Z,94.74
2022-10-22T08:10:40.864Z,94.84
2022-10-22T08:11:41.693Z,94.94
2022-10-22T08:12:42.968Z,94.84
2022-10-22T08:13:45.579Z,94.74
2022-10-22T08:14:44.128Z,94.74
2022-10-22T08:16:45.727Z,95.04
2022-10-22T08:17:46.565Z,94.94
2022-10-22T08:18:47.184Z,94.74
2022-10-22T08:19:48.006Z,94.94
2022-10-22T08:20:48.841Z,95.04
2022-10-22T08:21:49.670Z,94.94
2022-10-22T08:22:50.500Z,94.94
2022-10-22T08:23:51.319Z,94.74
2022-10-22T08:24:52.178Z,94.94
2022-10-22T08:25:53.011Z,94.84
2022-10-22T08:26:53.828Z,94.84
2022-10-22T08:27:54.724Z,94.94
2022-10-22T08:28:55.504Z,94.94
2022-10-22T08:29:56.387Z,94.84
2022-10-22T08:30:57.172Z,94.94
2022-10-22T08:31:57.993Z,94.33
2022-10-22T08:32:58.901Z,94.12
2022-10-22T08:33:59.662Z,94.02
2022-10-22T08:35:00.519Z,93.82
2022-10-22T08:36:01.353Z,93.82
2022-10-22T08:37:02.166Z,93.82
2022-10-22T08:38:02.983Z,94.33
2022-10-22T08:39:03.815Z,94.33
2022-10-22T08:40:04.770Z,94.12
2022-10-22T08:41:05.542Z,93.92
2022-10-22T08:42:06.361Z,93.82
2022-10-22T08:43:07.187Z,93.82
2022-10-22T08:44:08.012Z,94.02
2022-10-22T08:45:08.834Z,94.23
2022-10-22T08:46:09.679Z,94.33
2022-10-22T08:47:10.522Z,94.33
2022-10-22T08:48:11.355Z,94.64
2022-10-22T08:49:12.171Z,94.43
2022-10-22T08:50:12.990Z,94.43
2022-10-22T08:51:13.822Z,94.53
2022-10-22T08:52:14.643Z,94.64
2022-10-22T08:53:15.479Z,94.53
2022-10-22T08:54:16.303Z,94.64
2022-10-22T08:55:17.163Z,94.74
2022-10-22T08:56:17.980Z,94.74
2022-10-22T08:57:18.855Z,94.74
2022-10-22T08:58:19.639Z,94.74
2022-10-22T08:59:20.459Z,94.33
2022-10-22T09:00:21.301Z,94.23
2022-10-22T09:01:22.133Z,94.12
2022-10-22T09:02:22.960Z,93.92
2022-10-22T09:03:23.796Z,93.71
2022-10-22T09:04:24.610Z,93.92
2022-10-22T09:05:25.429Z,93.71
2022-10-22T09:06:26.268Z,93.62
2022-10-22T09:07:27.089Z,93.62
2022-10-22T09:08:27.930Z,93.62
2022-10-22T09:09:28.750Z,93.92
2022-10-22T09:10:29.594Z,93.92
2022-10-22T09:11:30.411Z,94.02
2022-10-22T09:12:31.239Z,93.62
2022-10-22T09:13:32.058Z,93.51
2022-10-22T09:14:32.902Z,93.62
2022-10-22T09:15:33.717Z,94.02
2022-10-22T09:16:34.556Z,94.12
2022-10-22T09:17:35.390Z,94.23
2022-10-22T09:18:36.219Z,94.33
2022-10-22T09:19:37.037Z,94.53
2022-10-22T09:20:37.863Z,94.74
2022-10-22T09:21:38.892Z,94.74
2022-10-22T09:22:39.699Z,94.74
2022-10-22T09:23:40.517Z,95.15
2022-10-22T09:24:41.372Z,95.15
2022-10-22T09:25:42.213Z,95.25
2022-10-22T09:26:43.023Z,95.35
2022-10-22T09:27:44.182Z,95.45
2022-10-22T09:28:44.565Z,94.94
2022-10-22T09:29:45.380Z,94.33
2022-10-22T09:30:46.347Z,94.23
2022-10-22T09:31:47.154Z,94.12
2022-10-22T09:32:47.976Z,94.33
2022-10-22T09:33:48.797Z,94.64
2022-10-22T09:34:49.626Z,94.64
2022-10-22T09:35:50.455Z,94.94
2022-10-22T09:36:51.285Z,94.94
2022-10-22T09:37:52.143Z,94.84
2022-10-22T09:38:52.935Z,94.94
2022-10-22T09:39:53.761Z,94.84
2022-10-22T09:40:54.620Z,94.43
2022-10-22T09:41:55.428Z,94.18
2022-10-22T09:42:56.255Z,93.88
2022-10-22T09:43:57.078Z,93.77
2022-10-22T09:44:57.903Z,93.67
2022-10-22T09:45:58.758Z,93.57
2022-10-22T09:46:59.581Z,93.57
2022-10-22T09:48:02.298Z,92.90
2022-10-22T09:49:01.326Z,92.55
2022-10-22T09:50:02.149Z,92.39
2022-10-22T09:51:03.059Z,92.49
2022-10-22T09:52:03.847Z,92.29
2022-10-22T09:53:04.676Z,91.98
2022-10-22T09:54:05.515Z,91.98
2022-10-22T09:55:06.339Z,92.29
2022-10-22T09:56:07.202Z,92.35
2022-10-22T09:57:08.008Z,92.76
2022-10-22T09:58:08.842Z,92.86
2022-10-22T09:59:09.439Z,92.96
2022-10-22T10:00:10.271Z,92.55
2022-10-22T10:01:11.126Z,92.04
2022-10-22T10:02:20.261Z,92.04
2022-10-22T10:03:13.709Z,92.35
2022-10-22T10:04:13.504Z,92.35
2022-10-22T10:05:14.315Z,92.55
2022-10-22T10:06:15.155Z,92.86
2022-10-22T10:07:15.982Z,92.96
2022-10-22T10:08:16.822Z,93.16
2022-10-22T10:09:17.755Z,93.47
2022-10-22T10:10:18.552Z,93.77
2022-10-22T10:11:19.410Z,93.67
2022-10-22T10:12:20.211Z,93.98
2022-10-22T10:13:21.062Z,93.98
2022-10-22T10:14:21.882Z,93.77
2022-10-22T10:15:22.711Z,93.52
2022-10-22T10:16:23.548Z,93.12
2022-10-22T10:17:24.387Z,93.43
2022-10-22T10:18:25.218Z,93.32
2022-10-22T10:19:26.046Z,93.43
2022-10-22T10:20:26.878Z,92.91
2022-10-22T10:21:27.744Z,92.71
2022-10-22T10:22:28.549Z,92.30
2022-10-22T10:23:29.379Z,91.89
2022-10-22T10:24:30.211Z,92.00
2022-10-22T10:25:31.039Z,92.61
2022-10-22T10:26:31.898Z,92.91
2022-10-22T10:27:32.710Z,92.30
2022-10-22T10:28:33.538Z,91.89
2022-10-22T10:29:34.410Z,92.10
2022-10-22T10:30:35.215Z,92.10
2022-10-22T10:31:36.047Z,92.00
2022-10-22T10:32:36.867Z,91.69
2022-10-22T10:33:37.713Z,91.89
2022-10-22T10:34:38.595Z,92.10
2022-10-22T10:35:39.419Z,92.46
2022-10-22T10:36:40.261Z,92.57
2022-10-22T10:37:41.089Z,92.67
2022-10-22T10:38:41.927Z,92.36
2022-10-22T10:39:42.769Z,92.26
2022-10-22T10:40:43.588Z,91.85
2022-10-22T10:41:44.438Z,91.85
2022-10-22T10:42:45.244Z,91.03
2022-10-22T10:43:46.071Z,90.94
2022-10-22T10:44:46.897Z,89.71
2022-10-22T10:45:49.528Z,88.90
2022-10-22T10:46:48.505Z,89.40
2022-10-22T10:47:49.350Z,89.30
2022-10-22T10:48:50.169Z,89.30
2022-10-22T10:49:50.999Z,88.08
2022-10-22T10:50:51.835Z,87.47
2022-10-22T10:51:52.667Z,87.98
2022-10-22T10:52:53.493Z,87.94
2022-10-22T10:53:54.324Z,88.04
2022-10-22T10:54:55.151Z,87.84
2022-10-22T10:55:55.991Z,88.14
2022-10-22T10:56:56.827Z,87.12
2022-10-22T10:57:57.638Z,87.02
2022-10-22T10:58:58.477Z,86.82
2022-10-22T10:59:59.295Z,86.82
2022-10-22T11:01:00.245Z,87.32
2022-10-22T11:02:01.116Z,86.92
2022-10-22T11:03:01.911Z,86.82
2022-10-22T11:04:02.725Z,86.61
2022-10-22T11:05:03.557Z,87.02
2022-10-22T11:06:04.409Z,87.32
2022-10-22T11:07:11.358Z,87.53
2022-10-22T11:08:06.937Z,87.53
2022-10-22T11:09:06.830Z,88.00
2022-10-22T11:10:07.620Z,88.31
2022-10-22T11:11:08.503Z,88.40
2022-10-22T11:12:09.300Z,88.40
2022-10-22T11:13:10.111Z,88.61
2022-10-22T11:14:10.966Z,88.51
2022-10-22T11:15:11.775Z,88.40
2022-10-22T11:16:12.615Z,88.00
2022-10-22T11:17:13.444Z,87.79
2022-10-22T11:18:14.277Z,87.29
2022-10-22T11:19:22.715Z,87.18
2022-10-22T11:20:16.822Z,87.08
2022-10-22T11:21:16.658Z,86.98
2022-10-22T11:22:17.500Z,87.04
2022-10-22T11:23:20.653Z,87.35
2022-10-22T11:24:19.248Z,87.24
2022-10-22T11:25:20.071Z,87.14
2022-10-22T11:26:21.003Z,87.14
2022-10-22T11:27:21.860Z,87.35
2022-10-22T11:28:22.708Z,87.35
2022-10-22T11:29:23.519Z,87.04
2022-10-22T11:30:24.349Z,86.94
2022-10-22T11:31:25.197Z,86.74
2022-10-22T11:32:26.003Z,86.33
2022-10-22T11:33:26.823Z,86.63
2022-10-22T11:34:33.596Z,86.63
2022-10-22T11:35:29.370Z,86.33
2022-10-22T11:36:29.258Z,86.22
2022-10-22T11:37:30.037Z,86.33
2022-10-22T11:38:32.837Z,86.74
2022-10-22T11:39:31.718Z,86.63
2022-10-22T11:40:32.544Z,86.74
2022-10-22T11:41:33.392Z,86.53
2022-10-22T11:42:34.236Z,86.53
2022-10-22T11:43:35.040Z,87.20
2022-10-22T11:44:35.866Z,87.61
2022-10-22T11:45:36.709Z,87.51
2022-10-22T11:46:37.526Z,87.71
2022-10-22T11:47:38.704Z,87.92
2022-10-22T11:48:39.055Z,88.02
2022-10-22T11:49:39.907Z,88.08
2022-10-22T11:50:40.750Z,85.64
2022-10-22T11:51:41.586Z,85.84
2022-10-22T11:52:42.409Z,85.74
2022-10-22T11:53:43.240Z,86.15
2022-10-22T11:54:44.133Z,86.76
2022-10-22T11:55:44.926Z,86.61
2022-10-22T11:56:45.773Z,84.88
2022-10-22T11:57:46.616Z,83.76
2022-10-22T11:58:50.780Z,84.68
2022-10-22T11:59:49.154Z,85.29
2022-10-22T12:00:49.008Z,84.64
2022-10-22T12:01:49.825Z,84.13
2022-10-22T12:02:50.651Z,84.03
2022-10-22T12:03:51.495Z,83.62
2022-10-22T12:04:52.375Z,83.93
2022-10-22T12:05:53.178Z,83.48
2022-10-22T12:06:54.013Z,83.28
2022-10-22T12:07:54.847Z,83.38
2022-10-22T12:08:55.836Z,82.67
2022-10-22T12:09:56.608Z,82.78
2022-10-22T12:10:57.436Z,82.98
2022-10-22T12:11:58.255Z,83.69
2022-10-22T12:12:59.102Z,84.16
2022-10-22T12:13:59.917Z,84.05
2022-10-22T12:15:00.740Z,83.75
2022-10-22T12:16:01.586Z,82.94
2022-10-22T12:17:02.407Z,83.75
2022-10-22T12:18:03.334Z,83.24
2022-10-22T12:19:04.117Z,82.33
2022-10-22T12:20:04.952Z,81.48
2022-10-22T12:21:05.802Z,81.58
2022-10-22T12:22:06.618Z,81.99
2022-10-22T12:23:07.460Z,81.07
2022-10-22T12:24:08.274Z,81.68
2022-10-22T12:25:09.110Z,81.78
2022-10-22T12:26:09.947Z,82.19
2022-10-22T12:27:13.460Z,81.88
2022-10-22T12:28:11.348Z,81.07
2022-10-22T12:29:12.157Z,78.94
2022-10-22T12:30:13.008Z,78.44
2022-10-22T12:31:13.840Z,79.69
2022-10-22T12:32:14.670Z,79.79
2022-10-22T12:33:15.503Z,80.60
2022-10-22T12:34:16.327Z,79.90
2022-10-22T12:35:17.155Z,79.96
2022-10-22T12:36:18.063Z,79.65
2022-10-22T12:37:18.839Z,79.45
2022-10-22T12:38:19.661Z,79.85
2022-10-22T12:39:20.496Z,80.57
2022-10-22T12:40:21.315Z,80.77
2022-10-22T12:41:22.157Z,80.66
2022-10-22T12:42:22.983Z,80.77
2022-10-22T12:43:23.838Z,81.07
2022-10-22T12:44:24.649Z,80.97
2022-10-22T12:45:25.483Z,80.32
2022-10-22T12:46:26.323Z,79.92
2022-10-22T12:47:27.151Z,79.61
2022-10-22T12:48:27.985Z,81.04
2022-10-22T12:49:28.813Z,81.54
2022-10-22T12:50:29.641Z,80.83
2022-10-22T12:52:31.246Z,79.41
2022-10-22T12:53:32.065Z,79.88
2022-10-22T12:54:32.909Z,78.66
2022-10-22T12:55:33.736Z,78.36
2022-10-22T12:56:34.570Z,78.56
2022-10-22T12:57:35.401Z,77.86
2022-10-22T12:58:36.241Z,78.26
2022-10-22T12:59:37.139Z,77.31
2022-10-22T13:00:38.010Z,76.90
2022-10-22T13:01:38.819Z,77.41
2022-10-22T13:02:40.024Z,76.80
2022-10-22T13:03:40.416Z,75.28
2022-10-22T13:04:41.234Z,75.99
2022-10-22T13:05:42.095Z,76.60
2022-10-22T13:06:42.904Z,76.80